Flight Track Log - Related Links

Times and Time Zones

All times are in EDT time to prevent confusion due to time zone crossing. See the SKW6345 flight status page for this flight to view local times or setup timezone preferences in your user account.

Time Position Orientation Groundspeed Altitude Reporting Facility
EDT Latitude Longitude Course Direction KTS MPH feet Rate Location/Type
Thu 02:11:00 PM 45.3819 -111.8114 230° Southwest  Level Estimated
Thu 02:11:09 PM 45.7842 -111.2886 241° Southwest 210 242 9,000  Level Salt Lake Center
Thu 02:12:00 PM 45.3112 -111.9276 229° Southwest  Level Estimated
Thu 02:12:11 PM 45.7981 -111.3858 282° West 245 282 11,000  Level Salt Lake Center
Thu 02:13:00 PM 45.2404 -112.0435 229° Southwest  Level Estimated
Thu 02:13:13 PM 45.8222 -111.4967 287° West 273 314 12,600  Level Salt Lake Center
Thu 02:14:00 PM 45.1695 -112.1592 229° Southwest  Level Estimated
Thu 02:14:15 PM 45.7969 -111.6119 253° West 306 352 14,500  Level Salt Lake Center
Thu 02:15:00 PM 45.0985 -112.2745 229° Southwest  Level Estimated
Thu 02:15:17 PM 45.7378 -111.7394 236° Southwest 320 368 16,700  Level Salt Lake Center
Thu 02:16:19 PM 45.6869 -111.8500 237° Southwest 328 377 18,200 1,355 Climbing Salt Lake Center
Thu 02:17:21 PM 45.6347 -111.9628 237° Southwest 337 388 19,500 871 Climbing Salt Lake Center
Thu 02:18:23 PM 45.5800 -112.0789 236° Southwest 348 400 20,000 823 Climbing Salt Lake Center
Thu 02:19:25 PM 45.5219 -112.2019 236° Southwest 367 422 21,200 1,161 Climbing Salt Lake Center
Thu 02:20:27 PM 45.4633 -112.3258 236° Southwest 375 432 22,400 1,306 Climbing Salt Lake Center
Thu 02:21:29 PM 45.3928 -112.4794 237° Southwest 385 443 23,900 1,258 Climbing Salt Lake Center
Thu 02:22:31 PM 45.3300 -112.6094 236° Southwest 391 450 25,000 1,016 Climbing Salt Lake Center
Thu 02:23:33 PM 45.2708 -112.7347 236° Southwest 397 457 26,000 1,500 Climbing Salt Lake Center
Thu 02:24:35 PM 45.1994 -112.8797 235° Southwest 399 459 28,100 1,728 Climbing Salt Lake Center
Thu 02:25:38 PM 45.1458 -112.9950 237° Southwest 373 429 29,600 1,440 Climbing Salt Lake Center
Thu 02:26:40 PM 45.0833 -113.1217 235° Southwest 352 405 31,100 823 Climbing Salt Lake Center
Thu 02:27:42 PM 45.0314 -113.2311 236° Southwest 352 405 31,300 339 Climbing Salt Lake Center
Thu 02:28:44 PM 44.9667 -113.3622 235° Southwest 364 419 31,800 339 Climbing Salt Lake Center
Thu 02:29:46 PM 44.9114 -113.4750 235° Southwest 367 422 32,000 97 Climbing Salt Lake Center
Thu 02:30:48 PM 44.8439 -113.6114 235° Southwest 380 437 32,000  Level Salt Lake Center
Thu 02:31:50 PM 44.7853 -113.7325 236° Southwest 390 449 32,000  Level Salt Lake Center
Thu 02:32:52 PM 44.7142 -113.8753 235° Southwest 399 459 32,000  Level Salt Lake Center
Thu 02:33:54 PM 44.6558 -113.9936 235° Southwest 400 460 32,000  Level Salt Lake Center
Thu 02:34:56 PM 44.5842 -114.1383 235° Southwest 403 464 32,000  Level Salt Lake Center
Thu 02:35:58 PM 44.5208 -114.2633 235° Southwest 408 470 32,000  Level Salt Lake Center
Thu 02:37:00 PM 44.4483 -114.4078 235° Southwest 407 468 32,000  Level Salt Lake Center
Thu 02:38:02 PM 44.3856 -114.5319 235° Southwest 407 468 32,000  Level Salt Lake Center
Thu 02:39:04 PM 44.3114 -114.6772 235° Southwest 410 472 32,000  Level Salt Lake Center
Thu 02:40:06 PM 44.2492 -114.8006 235° Southwest 408 470 32,000  Level Salt Lake Center
Thu 02:41:08 PM 44.1856 -114.9225 234° Southwest 406 467 32,000  Level Salt Lake Center
Thu 02:42:10 PM 44.1094 -115.0667 234° Southwest 411 473 32,000  Level Salt Lake Center
Thu 02:43:12 PM 44.0467 -115.1892 235° Southwest 407 468 32,000  Level Salt Lake Center
Thu 02:44:14 PM 43.9731 -115.3317 234° Southwest 406 467 32,000  Level Salt Lake Center
Thu 02:45:16 PM 43.9092 -115.4544 234° Southwest 408 470 32,000  Level Salt Lake Center
Thu 02:46:18 PM 43.8350 -115.5958 234° Southwest 404 465 32,000  Level Salt Lake Center
Thu 02:47:20 PM 43.7714 -115.7178 234° Southwest 406 467 32,000  Level Salt Lake Center
Thu 02:48:22 PM 43.6922 -115.8542 231° Southwest 405 466 32,000  Level Salt Lake Center
Thu 02:49:24 PM 43.6161 -115.9594 225° Southwest 405 466 32,000  Level Salt Lake Center
Thu 02:50:26 PM 43.5408 -116.0664 226° Southwest 405 466 32,000  Level Salt Lake Center
Thu 02:51:29 PM 43.4525 -116.1903 226° Southwest 404 465 32,000  Level Salt Lake Center
Thu 02:52:31 PM 43.3772 -116.2969 226° Southwest 405 466 32,000  Level Salt Lake Center
Thu 02:53:33 PM 43.2886 -116.4181 225° Southwest 402 463 32,000  Level Salt Lake Center
Thu 02:54:35 PM 43.2133 -116.5231 225° Southwest 402 463 32,000  Level Salt Lake Center
Thu 02:55:37 PM 43.1244 -116.6458 225° Southwest 405 466 32,000  Level Salt Lake Center
Thu 02:56:39 PM 43.0481 -116.7519 225° Southwest 407 468 32,000  Level Salt Lake Center
Thu 02:57:41 PM 42.9581 -116.8742 225° Southwest 408 470 32,000  Level Salt Lake Center
Thu 02:58:43 PM 42.8811 -116.9789 225° Southwest 408 470 32,000  Level Salt Lake Center
Thu 02:59:45 PM 42.7914 -117.1014 225° Southwest 407 468 32,000  Level Salt Lake Center
Thu 03:00:47 PM 42.7147 -117.2047 225° Southwest 403 464 32,000  Level Salt Lake Center
Thu 03:01:49 PM 42.6375 -117.3097 225° Southwest 409 471 32,000  Level Salt Lake Center
Thu 03:02:51 PM 42.5475 -117.4286 224° Southwest 404 465 32,000  Level Salt Lake Center
Thu 03:03:53 PM 42.4706 -117.5322 225° Southwest 406 467 32,000  Level Salt Lake Center
Thu 03:04:55 PM 42.3819 -117.6522 225° Southwest 403 464 32,000  Level Salt Lake Center
Thu 03:05:57 PM 42.3044 -117.7533 224° Southwest 403 464 32,000  Level Salt Lake Center
Thu 03:06:59 PM 42.2197 -117.8672 225° Southwest 404 465 32,000  Level Salt Lake Center
Thu 03:08:01 PM 42.1311 -117.9842 224° Southwest 404 465 32,000  Level Salt Lake Center
Thu 03:09:03 PM 42.0539 -118.0856 224° Southwest 405 466 32,000  Level Salt Lake Center
Thu 03:10:05 PM 41.9636 -118.2047 224° Southwest 407 468 32,000  Level Salt Lake Center
Thu 03:11:07 PM 41.8850 -118.3053 224° Southwest 407 468 32,000  Level Salt Lake Center
Thu 03:12:09 PM 41.7942 -118.4222 224° Southwest 405 466 32,000  Level Salt Lake Center
Thu 03:13:11 PM 41.7167 -118.5236 224° Southwest 407 468 32,000  Level Salt Lake Center
Thu 03:14:13 PM 41.6383 -118.6244 224° Southwest 408 470 32,000  Level Salt Lake Center
Thu 03:15:15 PM 41.5475 -118.7417 224° Southwest 408 470 32,000  Level Salt Lake Center
Thu 03:16:17 PM 41.4683 -118.8431 224° Southwest 409 471 32,000  Level Salt Lake Center
Thu 03:17:19 PM 41.3761 -118.9611 224° Southwest 412 474 32,000  Level Salt Lake Center
Thu 03:18:21 PM 41.2956 -119.0617 223° Southwest 414 476 32,000  Level Salt Lake Center
Thu 03:19:23 PM 41.2031 -119.1792 224° Southwest 412 474 32,000  Level Salt Lake Center
Thu 03:20:25 PM 41.1228 -119.2792 223° Southwest 413 475 32,000  Level Salt Lake Center
Thu 03:21:15 PM 41.0450 -119.3783 224° Southwest 414 476 32,000  Level Oakland Center
Thu 03:22:16 PM 40.9650 -119.4783 223° Southwest 414 476 32,000  Level Oakland Center
Thu 03:23:18 PM 40.8844 -119.5775 223° Southwest 413 475 32,000  Level Oakland Center
Thu 03:24:19 PM 40.7900 -119.6953 223° Southwest 417 480 32,000  Level Oakland Center
Thu 03:25:21 PM 40.7067 -119.7972 223° Southwest 412 474 32,000  Level Oakland Center
Thu 03:26:22 PM 40.6231 -119.9003 223° Southwest 412 474 32,000  Level Oakland Center
Thu 03:27:23 PM 40.5367 -120.0067 223° Southwest 416 479 32,000  Level Oakland Center
Thu 03:28:25 PM 40.4514 -120.1086 222° Southwest 416 479 32,000  Level Oakland Center
Thu 03:29:26 PM 40.3689 -120.2111 223° Southwest 413 475 32,000  Level Oakland Center
Thu 03:30:28 PM 40.2839 -120.3136 223° Southwest 414 476 32,000  Level Oakland Center
Thu 03:31:29 PM 40.1828 -120.4369 223° Southwest 416 479 32,000  Level Oakland Center
Thu 03:32:31 PM 40.0975 -120.5381 222° Southwest 415 478 32,000  Level Oakland Center
Thu 03:33:32 PM 40.0103 -120.6447 223° Southwest 422 486 32,000  Level Oakland Center
Thu 03:34:34 PM 39.9239 -120.7475 222° Southwest 422 486 32,000  Level Oakland Center
Thu 03:35:35 PM 39.8372 -120.8489 222° Southwest 422 486 32,000  Level Oakland Center
Thu 03:36:36 PM 39.7508 -120.9539 223° Southwest 424 488 32,000  Level Oakland Center
Thu 03:37:38 PM 39.6639 -121.0575 223° Southwest 425 489 32,000  Level Oakland Center
Thu 03:38:39 PM 39.5758 -121.1583 221° Southwest 425 489 32,000  Level Oakland Center
Thu 03:39:41 PM 39.4894 -121.2617 223° Southwest 424 488 32,000  Level Oakland Center
Thu 03:40:42 PM 39.3850 -121.3828 222° Southwest 423 487 32,000  Level Oakland Center
Thu 03:41:43 PM 39.2978 -121.4839 222° Southwest 422 486 32,000  Level Oakland Center
Thu 03:42:45 PM 39.2117 -121.5856 222° Southwest 422 486 32,000  Level Oakland Center
Thu 03:43:46 PM 39.1250 -121.6853 222° Southwest 420 483 32,000  Level Oakland Center
Thu 03:44:47 PM 39.0378 -121.7853 222° Southwest 422 486 32,000  Level Oakland Center
Thu 03:45:49 PM 38.9497 -121.8872 222° Southwest 428 493 32,000  Level Oakland Center
Thu 03:46:50 PM 38.8619 -121.9878 222° Southwest 425 489 32,000  Level Oakland Center
Thu 03:47:52 PM 38.7569 -122.1075 222° Southwest 425 489 32,000 -390 Level Oakland Center
Thu 03:48:53 PM 38.6800 -122.1953 222° Southwest 425 489 31,200 -1,317 Descending Oakland Center
Thu 03:49:55 PM 38.5894 -122.2978 222° Southwest 434 499 29,300 -2,098 Descending Oakland Center
Thu 03:50:56 PM 38.4822 -122.4183 221° Southwest 430 495 26,900 -2,146 Descending Oakland Center
Thu 03:51:58 PM 38.3925 -122.5186 221° Southwest 432 497 24,900 -1,463 Descending Oakland Center
Thu 03:52:59 PM 38.3044 -122.6189 222° Southwest 429 494 23,900 -1,707 Descending Oakland Center
Thu 03:54:01 PM 38.1964 -122.6614 197° South 420 483 21,400 -3,415 Descending Oakland Center
Thu 03:55:02 PM 38.0764 -122.6661 182° South 431 496 16,900 -4,390 Descending Oakland Center
Thu 03:56:04 PM 37.9661 -122.6708 182° South 409 471 12,400 -2,878 Descending Oakland Center
Thu 03:57:05 PM 37.8658 -122.6361 165° South 329 379 11,000 -832 Descending Oakland Center
Thu 03:57:45 PM 37.8167 -122.5833 140° Southeast 293 337 11,000  Level Northern Cal TRACON
Thu 03:58:45 PM 37.7667 -122.5167 133° Southeast 279 321 11,000  Level Northern Cal TRACON
Thu 03:59:45 PM 37.7000 -122.4667 149° Southeast 251 289 11,000  Level Northern Cal TRACON
Thu 04:00:39 PM 37.6500 -122.4167 142° Southeast 263 303 11,000  Level Northern Cal TRACON
Thu 04:01:39 PM 37.6000 -122.3500 133° Southeast 267 307 11,000 -600 Level Northern Cal TRACON
Thu 04:02:39 PM 37.5333 -122.3167 158° South 250 288 9,800 -1,571 Descending Northern Cal TRACON
Thu 04:03:45 PM 37.4667 -122.2500 142° Southeast 257 296 7,700 -1,550 Descending Northern Cal TRACON
Thu 04:04:39 PM 37.4500 -122.2000 113° Southeast 243 280 6,700 -1,053 Descending Northern Cal TRACON
Thu 04:05:39 PM 37.4833 -122.1500 50° Northeast 218 251 5,700 -1,150 Descending Northern Cal TRACON
Thu 04:06:39 PM 37.5333 -122.1833 332° Northwest 186 214 4,400 -1,300 Descending Northern Cal TRACON

Login

Don't have an account? Register now (free) for customized features, flight alerts, and more!